Metar z pełnej godziny Komunikat METAR ze strony awiacja.imgw.pl Metar G00 EPMO METAR EPMO 292000Z 33007KT CAVOK 13/05 Q1021 =